Terminal Aerodrome Forecast
Issued by NWS

Current Version | Previous Version | Text Only | Print | Product List | Glossary On
Versions: 1 2 3 4 5 6 7 8 9 10 11 12 13 14 15 16 17 18 19 20 21 22 23 24
515
FTUS45 KRIW 220032 AAA
TAFRKS
TAF AMD
KRKS 220032Z 2201/2224 26014KT 3SM -SN SCT015 OVC025
      TEMPO 2201/2204 1 1/2SM -SN BKN015
     FM220400 27020G30KT P6SM SCT025 BKN040
     FM220700 25011KT P6SM SCT150
     FM222000 16010KT P6SM SCT020 BKN030=

USA.gov is the U.S. government's official web portal to all federal, state and local government web resources and services.